Time;durP1;ratioP1;P1;durP2;ratioP2;P2;SDS_P1;SDS_P2;PMS_P1;PMS_P2;Temp;Humidity;BMP_temperature;BMP_pressure;BME280_temperature;BME280_humidity;BME280_pressure;Samples;Min_cycle;Max_cycle;Signal;HPM_P1;HPM_P2
2021/03/29 00:02:28;;;;;;;11.40;2.63;;;;;;;11.43;77.05;101742.06;5225209;28;20108;-79
2021/03/29 00:04:59;;;;;;;12.93;3.00;;;;;;;11.34;78.05;101742.25;5225151;28;20633;-80
2021/03/29 00:07:32;;;;;;;9.95;2.45;;;;;;;11.36;77.34;101740.47;5227955;28;20038;-79
2021/03/29 00:10:06;;;;;;;7.80;2.45;;;;;;;11.37;77.50;101739.56;5224885;28;20024;-80
2021/03/29 00:12:39;;;;;;;14.48;2.35;;;;;;;11.33;77.81;101737.91;5225387;28;20627;-80
2021/03/29 00:15:14;;;;;;;10.15;2.83;;;;;;;11.29;77.46;101736.22;5207084;28;20037;-79
2021/03/29 00:17:45;;;;;;;;;;;;;;;11.25;78.27;101738.97;5207308;28;20113;-79
2021/03/29 00:20:23;;;;;;;8.23;2.55;;;;;;;11.28;78.10;101737.13;5225402;28;19974;-78
2021/03/29 00:22:59;;;;;;;10.43;2.63;;;;;;;11.29;78.99;101732.78;5224423;28;20128;-79
2021/03/29 00:25:32;;;;;;;11.48;2.47;;;;;;;11.25;78.95;101734.56;5201859;28;20047;-78
2021/03/29 00:28:03;;;;;;;11.77;2.40;;;;;;;11.26;78.17;101733.69;5224505;28;20200;-80
2021/03/29 00:30:44;;;;;;;14.20;3.00;;;;;;;11.27;77.39;101738.03;5206893;28;20040;-79
2021/03/29 00:33:16;;;;;;;11.65;2.53;;;;;;;11.39;76.88;101729.94;5222979;28;20039;-79
2021/03/29 00:35:48;;;;;;;9.73;2.70;;;;;;;11.29;78.70;101736.22;5207283;28;21266;-79
2021/03/29 00:38:20;;;;;;;12.48;2.83;;;;;;;11.19;77.92;101725.97;5224834;28;20025;-80
2021/03/29 00:40:58;;;;;;;12.18;2.60;;;;;;;11.20;78.62;101722.47;5224145;28;20020;-79
2021/03/29 00:43:32;;;;;;;10.43;2.58;;;;;;;11.20;77.91;101725.09;5222292;28;20025;-78
2021/03/29 00:46:05;;;;;;;10.95;3.13;;;;;;;11.16;78.54;101731.28;5223971;28;20056;-80
2021/03/29 00:48:36;;;;;;;11.00;3.15;;;;;;;11.20;78.39;101720.72;5206623;28;20024;-80
2021/03/29 00:51:19;;;;;;;15.13;3.20;;;;;;;11.16;78.42;101724.31;5224738;28;20071;-80
2021/03/29 00:53:55;;;;;;;13.23;3.00;;;;;;;11.10;78.67;101728.78;5224474;28;20029;-79
2021/03/29 00:56:26;;;;;;;17.23;3.28;;;;;;;11.11;78.20;101731.38;5210500;28;20569;-80
2021/03/29 00:58:58;;;;;;;10.32;2.40;;;;;;;11.12;78.55;101740.94;5211694;28;20466;-80
2021/03/29 01:01:38;;;;;;;15.40;3.38;;;;;;;11.02;78.35;101736.78;5222377;28;20537;-81
2021/03/29 01:04:09;;;;;;;13.02;3.15;;;;;;;10.97;78.75;101739.50;5221748;28;20131;-79
2021/03/29 01:06:46;;;;;;;12.75;3.38;;;;;;;10.92;79.20;101737.00;5224003;28;20048;-79
2021/03/29 01:09:19;;;;;;;10.52;2.80;;;;;;;10.87;79.06;101730.13;5205717;28;20571;-79
2021/03/29 01:11:54;;;;;;;12.27;3.05;;;;;;;10.87;79.63;101730.13;5224261;28;20710;-80
2021/03/29 01:14:35;;;;;;;11.05;3.00;;;;;;;10.79;79.54;101732.00;5223478;28;20064;-80
2021/03/29 01:17:14;;;;;;;11.23;2.90;;;;;;;10.74;79.71;101736.44;5223565;28;20501;-79
2021/03/29 01:20:02;;;;;;;15.25;3.47;;;;;;;10.58;80.72;101734.97;5223732;28;20029;-80
2021/03/29 01:22:45;;;;;;;11.25;3.35;;;;;;;10.62;80.41;101734.91;5216920;28;20032;-79
2021/03/29 01:25:27;;;;;;;14.57;3.60;;;;;;;10.61;81.00;101729.69;5224114;28;20025;-80
2021/03/29 01:28:05;;;;;;;12.60;3.60;;;;;;;10.58;80.88;101738.47;5215918;28;20025;-79
2021/03/29 01:30:38;;;;;;;18.85;3.67;;;;;;;10.57;80.49;101731.53;5223817;28;20063;-78
2021/03/29 01:33:10;;;;;;;13.50;3.45;;;;;;;10.53;80.77;101729.81;5223426;28;20024;-79
2021/03/29 01:35:44;;;;;;;13.68;3.50;;;;;;;10.60;80.85;101725.34;5223817;28;20070;-80
2021/03/29 01:38:15;;;;;;;10.90;3.10;;;;;;;10.57;80.43;101721.06;5226033;28;20036;-79
2021/03/29 01:40:46;;;;;;;14.40;3.53;;;;;;;10.60;80.81;101727.97;5223295;28;20033;-79
2021/03/29 01:43:17;;;;;;;15.57;3.05;;;;;;;10.72;79.64;101727.78;5227160;28;20032;-79
2021/03/29 01:45:48;;;;;;;17.83;3.78;;;;;;;10.63;80.05;101730.53;5226547;28;20490;-79
2021/03/29 01:48:19;;;;;;;10.93;3.30;;;;;;;10.59;79.70;101724.50;5209360;28;20036;-81
2021/03/29 01:50:53;;;;;;;11.85;3.67;;;;;;;10.57;80.44;101731.53;5226263;28;20098;-79
2021/03/29 01:53:27;;;;;;;11.52;3.50;;;;;;;10.63;80.10;101733.16;5209202;28;20037;-79
2021/03/29 01:55:57;;;;;;;12.52;3.28;;;;;;;10.58;80.07;101733.25;5192736;28;20025;-79
2021/03/29 01:58:28;;;;;;;15.80;3.80;;;;;;;10.61;79.36;101730.56;5207844;28;20081;-79
2021/03/29 02:01:04;;;;;;;16.27;3.92;;;;;;;10.64;79.57;101730.50;5225373;28;20117;-80
2021/03/29 02:03:36;;;;;;;12.88;3.63;;;;;;;10.70;80.00;101726.94;5225416;28;20402;-80
2021/03/29 02:06:08;;;;;;;14.40;3.83;;;;;;;10.76;79.16;101724.19;5225226;28;20028;-80
2021/03/29 02:08:40;;;;;;;11.90;3.78;;;;;;;10.72;79.67;101720.78;5225360;28;20518;-80
2021/03/29 02:11:11;;;;;;;10.30;3.40;;;;;;;10.68;80.01;101723.50;5225709;28;20537;-80
2021/03/29 02:13:44;;;;;;;16.00;3.83;;;;;;;10.69;79.70;101720.84;5206541;28;20037;-79
2021/03/29 02:16:15;;;;;;;13.48;4.13;;;;;;;10.70;79.86;101719.09;5206156;28;20119;-80
2021/03/29 02:18:50;;;;;;;16.77;3.85;;;;;;;10.70;80.06;101719.09;5222792;28;20041;-80
2021/03/29 02:21:23;;;;;;;17.75;3.92;;;;;;;10.72;80.02;101717.31;5223951;28;20159;-79
2021/03/29 02:23:57;;;;;;;15.70;4.25;;;;;;;10.80;79.93;101718.91;5213488;28;20085;-79
2021/03/29 02:26:30;;;;;;;13.75;4.10;;;;;;;10.78;80.10;101704.13;5217922;28;20025;-79
2021/03/29 02:29:00;;;;;;;16.65;4.35;;;;;;;10.79;79.50;101704.09;5227022;28;20025;-80
2021/03/29 02:31:32;;;;;;;14.05;4.10;;;;;;;10.89;79.24;101697.78;5242659;28;20115;-81
2021/03/29 02:34:04;;;;;;;15.00;4.40;;;;;;;11.03;78.04;101695.78;5209253;28;20033;-80
2021/03/29 02:36:35;;;;;;;16.70;4.40;;;;;;;11.06;78.00;101695.72;5211534;28;20102;-79
2021/03/29 02:39:06;;;;;;;15.43;4.55;;;;;;;10.98;78.84;101681.06;5227207;28;20018;-80
2021/03/29 02:41:37;;;;;;;15.48;4.43;;;;;;;10.95;78.73;101689.84;5208822;28;20033;-81
2021/03/29 02:44:08;;;;;;;17.70;4.63;;;;;;;10.96;79.97;101690.69;5225474;28;20028;-79
2021/03/29 02:46:39;;;;;;;18.00;5.20;;;;;;;11.14;80.79;101686.81;5225728;28;20025;-81
2021/03/29 02:49:11;;;;;;;17.67;4.47;;;;;;;10.98;80.03;101684.56;5226483;28;20025;-81
2021/03/29 02:51:43;;;;;;;15.25;3.83;;;;;;;10.95;80.32;101687.22;5204735;28;20414;-79
2021/03/29 02:54:15;;;;;;;14.02;3.70;;;;;;;10.92;80.00;101692.53;5208619;28;20056;-79
2021/03/29 02:56:47;;;;;;;15.68;3.85;;;;;;;10.81;79.80;101689.25;5225324;28;20079;-81
2021/03/29 02:59:21;;;;;;;13.43;3.40;;;;;;;10.81;79.86;101690.97;5225403;28;20025;-81
2021/03/29 03:01:53;;;;;;;11.30;3.47;;;;;;;10.92;79.52;101692.53;5224922;28;20043;-81
2021/03/29 03:04:23;;;;;;;12.38;2.80;;;;;;;10.89;79.28;101691.72;5224842;28;20115;-80
2021/03/29 03:06:54;;;;;;;10.50;2.83;;;;;;;10.94;78.17;101689.84;5227911;28;20097;-80
2021/03/29 03:09:24;;;;;;;11.75;2.90;;;;;;;10.96;77.64;101693.31;5212129;28;20052;-79
2021/03/29 03:11:55;;;;;;;12.63;3.10;;;;;;;10.98;78.22;101691.53;5220919;28;20117;-81
2021/03/29 03:14:26;;;;;;;11.90;2.70;;;;;;;10.95;77.43;101691.59;5206380;28;20055;-80
2021/03/29 03:16:56;;;;;;;11.57;2.67;;;;;;;10.98;77.92;101687.16;5230358;28;20025;-80
2021/03/29 03:19:26;;;;;;;17.15;3.17;;;;;;;10.85;77.70;101697.91;5229722;28;20032;-80
2021/03/29 03:21:57;;;;;;;9.45;2.60;;;;;;;10.88;77.89;101692.59;5231895;28;20098;-80
2021/03/29 03:24:34;;;;;;;16.33;3.10;;;;;;;10.73;77.70;101700.72;5233806;28;20017;-79
2021/03/29 03:27:09;;;;;;;12.32;2.88;;;;;;;10.60;78.11;101694.88;5233904;28;20482;-78
2021/03/29 03:29:41;;;;;;;12.80;2.95;;;;;;;10.56;78.93;101708.00;5234477;28;20020;-81
2021/03/29 03:32:15;;;;;;;10.85;2.47;;;;;;;10.52;78.71;101706.34;5210370;28;20630;-79
2021/03/29 03:34:46;;;;;;;14.05;3.25;;;;;;;10.51;78.63;101705.47;5206235;28;20025;-80
2021/03/29 03:37:19;;;;;;;14.30;3.08;;;;;;;10.57;78.30;101715.84;5211507;28;20078;-80
2021/03/29 03:39:49;;;;;;;18.08;3.60;;;;;;;10.59;77.73;101706.22;5215943;28;20028;-78
2021/03/29 03:42:20;;;;;;;14.55;3.90;;;;;;;10.66;77.37;101710.44;5232952;28;20040;-79
2021/03/29 03:44:50;;;;;;;13.68;3.60;;;;;;;10.62;77.90;101707.91;5213792;28;20088;-80
2021/03/29 03:47:21;;;;;;;16.15;3.42;;;;;;;10.53;77.88;101708.91;5229705;28;20490;-80
2021/03/29 03:49:51;;;;;;;13.98;3.90;;;;;;;10.54;77.88;101709.78;5211044;28;20529;-79
2021/03/29 03:52:22;;;;;;;13.32;3.65;;;;;;;10.50;78.17;101705.50;5228951;28;20446;-79
2021/03/29 03:54:52;;;;;;;17.05;3.63;;;;;;;10.50;78.61;101700.28;5210342;28;20052;-79
2021/03/29 03:57:23;;;;;;;12.18;3.20;;;;;;;10.46;78.20;101706.44;5226291;28;20021;-80
2021/03/29 03:59:54;;;;;;;17.08;3.58;;;;;;;10.57;77.54;101701.91;5227653;28;20027;-80
2021/03/29 04:02:25;;;;;;;15.55;3.53;;;;;;;10.56;77.55;101702.78;5205534;28;20025;-80
2021/03/29 04:04:55;;;;;;;13.55;3.47;;;;;;;10.50;77.21;101705.50;5228143;28;20029;-79
2021/03/29 04:07:25;;;;;;;14.57;3.80;;;;;;;10.45;77.36;101699.47;5228252;28;20111;-80
2021/03/29 04:10:02;;;;;;;14.43;3.40;;;;;;;10.52;77.42;101696.75;5227994;28;20020;-79
2021/03/29 04:12:34;;;;;;;12.45;3.22;;;;;;;10.47;77.67;101697.69;5228400;28;20024;-80
2021/03/29 04:15:05;;;;;;;14.10;3.88;;;;;;;10.39;78.40;101694.38;5226471;28;20390;-80
2021/03/29 04:17:35;;;;;;;16.73;3.70;;;;;;;10.36;78.98;101691.81;5220614;28;20029;-79
2021/03/29 04:20:08;;;;;;;19.35;3.80;;;;;;;10.30;79.38;101689.28;5227535;28;20080;-80
2021/03/29 04:22:38;;;;;;;12.88;3.63;;;;;;;10.38;78.84;101690.88;5228504;28;20032;-80
2021/03/29 04:25:12;;;;;;;15.68;3.50;;;;;;;10.27;79.53;101695.44;5210782;28;20147;-79
2021/03/29 04:27:43;;;;;;;14.45;3.67;;;;;;;10.35;79.12;101693.56;5227613;28;20033;-80
2021/03/29 04:30:13;;;;;;;16.27;3.67;;;;;;;10.26;79.53;101698.94;5227936;28;20021;-80
2021/03/29 04:32:47;;;;;;;15.05;3.67;;;;;;;10.21;79.88;101706.00;5224584;28;20051;-80
2021/03/29 04:35:20;;;;;;;13.73;3.42;;;;;;;10.20;79.92;101699.03;5225711;28;20027;-80
2021/03/29 04:37:53;;;;;;;14.07;3.60;;;;;;;10.20;79.40;101701.63;5209595;28;20097;-80
2021/03/29 04:40:26;;;;;;;15.02;3.95;;;;;;;10.16;79.58;101701.72;5209943;28;20028;-81
2021/03/29 04:42:57;;;;;;;10.55;3.20;;;;;;;10.08;79.68;101711.41;5191364;28;20396;-79
2021/03/29 04:45:27;;;;;;;12.00;3.17;;;;;;;10.07;79.25;101709.69;5198819;28;20048;-79
2021/03/29 04:47:57;;;;;;;16.90;3.53;;;;;;;10.03;79.26;101710.63;5211799;28;20036;-80
2021/03/29 04:50:28;;;;;;;16.90;4.13;;;;;;;9.97;79.47;101715.94;5229129;28;20044;-81
2021/03/29 04:52:58;;;;;;;13.20;3.10;;;;;;;9.88;79.62;101718.66;5211736;28;20021;-80
2021/03/29 04:55:28;;;;;;;15.88;3.00;;;;;;;9.80;80.21;101710.94;5229454;28;20024;-81
2021/03/29 04:57:59;;;;;;;10.48;3.10;;;;;;;9.78;80.23;101714.44;5208784;28;20070;-80
2021/03/29 05:00:29;;;;;;;12.45;3.28;;;;;;;9.73;80.53;101713.66;5229281;28;20025;-81
2021/03/29 05:02:59;;;;;;;17.42;3.13;;;;;;;9.90;80.40;101711.66;5224075;28;20438;-80
2021/03/29 05:05:30;;;;;;;14.68;3.10;;;;;;;9.83;81.07;101710.88;5229500;28;20024;-80
2021/03/29 05:08:00;;;;;;;13.23;3.20;;;;;;;9.69;80.85;101709.38;5228729;28;20025;-78
2021/03/29 05:10:31;;;;;;;16.27;3.20;;;;;;;9.71;80.60;101710.22;5210865;28;20104;-79
2021/03/29 05:13:01;;;;;;;16.38;3.70;;;;;;;9.69;80.77;101706.75;5210593;28;20033;-81
2021/03/29 05:15:31;;;;;;;14.95;3.55;;;;;;;9.80;80.74;101703.09;5210949;28;20080;-81
2021/03/29 05:18:02;;;;;;;13.00;3.10;;;;;;;9.82;80.50;101705.72;5228233;28;20037;-81
2021/03/29 05:20:32;;;;;;;14.90;3.45;;;;;;;9.86;80.00;101708.22;5209812;28;20067;-80
2021/03/29 05:23:03;;;;;;;16.90;3.45;;;;;;;9.89;80.98;101709.94;5223511;28;20044;-79
2021/03/29 05:25:33;;;;;;;14.38;3.35;;;;;;;9.74;81.21;101708.44;5206797;28;20024;-79
2021/03/29 05:28:03;;;;;;;11.35;3.10;;;;;;;9.78;80.85;101710.09;5224274;28;20016;-80
2021/03/29 05:30:34;;;;;;;15.90;3.25;;;;;;;9.95;80.84;101712.44;5226425;28;20013;-80
2021/03/29 05:33:04;;;;;;;14.85;3.58;;;;;;;10.06;79.70;101715.81;5223946;28;20497;-80
2021/03/29 05:35:35;;;;;;;14.13;3.30;;;;;;;10.18;80.53;101707.78;5202005;28;20021;-79
2021/03/29 05:38:05;;;;;;;13.88;3.65;;;;;;;10.24;79.47;101707.69;5207790;28;20082;-81
2021/03/29 05:40:35;;;;;;;12.82;3.20;;;;;;;10.36;78.85;101717.94;5227419;28;20532;-80
2021/03/29 05:43:07;;;;;;;14.05;3.22;;;;;;;10.39;78.02;101713.53;5223384;28;20032;-80
2021/03/29 05:45:37;;;;;;;15.88;2.88;;;;;;;10.41;78.43;101710.88;5226807;28;20032;-80
2021/03/29 05:48:09;;;;;;;11.77;2.55;;;;;;;10.48;78.16;101712.53;5226115;28;20059;-80
2021/03/29 05:50:39;;;;;;;11.77;2.78;;;;;;;10.62;77.97;101715.72;5207884;28;20043;-80
2021/03/29 05:53:10;;;;;;;14.88;2.67;;;;;;;10.69;77.44;101704.31;5228383;28;20024;-80
2021/03/29 05:55:41;;;;;;;17.42;3.03;;;;;;;10.73;77.74;101712.06;5207697;28;20029;-80
2021/03/29 06:00:55;;;;;;;13.35;2.97;;;;;;;10.88;76.63;101718.75;5228933;28;20025;-79
2021/03/29 06:03:39;;;;;;;13.50;3.10;;;;;;;10.89;75.87;101712.63;5229010;28;20031;-80
2021/03/29 06:06:12;;;;;;;12.27;3.15;;;;;;;11.05;76.40;101714.91;5223622;28;20021;-80
2021/03/29 06:08:49;;;;;;;17.00;3.30;;;;;;;11.09;75.56;101717.44;5207945;28;20101;-80
2021/03/29 06:11:40;;;;;;;13.85;3.10;;;;;;;11.04;75.28;101719.31;5208860;28;20025;-81
2021/03/29 06:14:20;;;;;;;13.38;2.95;;;;;;;11.08;75.41;101726.19;5208483;28;20048;-80
2021/03/29 06:17:02;;;;;;;12.75;3.50;;;;;;;11.13;75.19;101726.13;5228084;28;20282;-81
2021/03/29 06:19:41;;;;;;;12.30;3.10;;;;;;;11.17;75.88;101733.88;5226698;28;20021;-80
2021/03/29 06:22:22;;;;;;;15.50;3.05;;;;;;;11.27;75.30;101727.56;5224817;28;20033;-80
2021/03/29 06:25:14;;;;;;;17.60;3.33;;;;;;;11.33;74.33;101730.06;5222970;28;20032;-80
2021/03/29 06:27:57;;;;;;;16.80;3.30;;;;;;;11.33;74.58;101732.69;5223614;28;20047;-79
2021/03/29 06:30:29;;;;;;;12.90;3.25;;;;;;;11.45;74.89;101737.66;5212379;28;20023;-80
2021/03/29 06:33:15;;;;;;;12.32;3.22;;;;;;;11.48;74.01;101737.59;5228870;28;20387;-78
2021/03/29 06:35:47;;;;;;;12.73;3.00;;;;;;;11.42;74.57;101731.63;5210494;28;20052;-80
2021/03/29 06:38:20;;;;;;;12.00;2.85;;;;;;;11.42;74.23;101735.09;5225972;28;20446;-80
2021/03/29 06:40:50;;;;;;;15.43;3.45;;;;;;;11.49;74.77;101727.97;5222671;28;20053;-81
2021/03/29 06:43:21;;;;;;;17.23;3.50;;;;;;;11.39;75.80;101737.78;5224490;28;20087;-80
2021/03/29 06:45:56;;;;;;;17.10;3.33;;;;;;;11.45;75.34;101740.28;5225374;28;20303;-79
2021/03/29 06:48:33;;;;;;;15.77;3.22;;;;;;;11.44;74.27;101743.78;5209337;28;20039;-81
2021/03/29 06:51:26;;;;;;;18.08;3.35;;;;;;;11.46;74.43;101744.59;5216751;28;20236;-81
2021/03/29 06:54:04;;;;;;;13.43;3.20;;;;;;;11.54;74.73;101737.47;5210580;28;20078;-80
2021/03/29 06:56:41;;;;;;;12.85;3.50;;;;;;;11.64;74.58;101743.41;5230077;28;20044;-80
2021/03/29 06:59:25;;;;;;;16.50;3.80;;;;;;;11.74;74.43;101758.91;5229768;28;20424;-80
2021/03/29 07:01:57;;;;;;;15.15;3.63;;;;;;;11.72;75.03;101752.84;5211456;28;20025;-80
2021/03/29 07:04:28;;;;;;;15.85;3.22;;;;;;;11.81;73.78;101750.00;5224806;28;20096;-79
2021/03/29 07:06:59;;;;;;;17.17;3.53;;;;;;;11.80;74.23;101745.66;5209343;28;20048;-81
2021/03/29 07:09:33;;;;;;;11.15;3.28;;;;;;;11.91;72.53;101754.16;5232446;28;20540;-79
2021/03/29 07:12:07;;;;;;;14.52;3.22;;;;;;;12.06;71.62;101753.81;5214204;28;20075;-80
2021/03/29 07:14:37;;;;;;;13.63;3.30;;;;;;;12.12;71.83;101758.91;5228966;28;20021;-80
2021/03/29 07:17:08;;;;;;;13.82;3.47;;;;;;;12.22;71.29;101765.66;5229411;28;20143;-81
2021/03/29 07:19:39;;;;;;;15.32;4.15;;;;;;;12.26;72.24;101762.06;5211855;28;20027;-81
2021/03/29 07:22:10;;;;;;;17.50;3.65;;;;;;;12.25;72.63;101762.97;5227176;28;20049;-79
2021/03/29 07:24:40;;;;;;;16.33;3.50;;;;;;;12.22;72.13;101773.53;5231899;28;20494;-80
2021/03/29 07:27:14;;;;;;;13.18;3.20;;;;;;;12.25;70.75;101762.97;5231834;28;20029;-79
2021/03/29 07:29:46;;;;;;;14.98;3.55;;;;;;;12.31;70.94;101761.97;5228745;28;20836;-79
2021/03/29 07:32:34;;;;;;;13.18;3.00;;;;;;;12.49;70.20;101769.38;5210694;28;20021;-81
2021/03/29 07:35:06;;;;;;;13.35;3.58;;;;;;;12.57;71.23;101778.78;5224443;28;20624;-79
2021/03/29 07:37:43;;;;;;;14.55;3.40;;;;;;;12.59;70.76;101779.63;5208975;28;20113;-79
2021/03/29 07:40:14;;;;;;;17.95;3.53;;;;;;;12.52;71.12;101774.56;5227091;28;20021;-80
2021/03/29 07:42:45;;;;;;;14.73;2.93;;;;;;;12.50;70.13;101774.59;5210445;28;20044;-80
2021/03/29 07:45:19;;;;;;;17.13;3.58;;;;;;;12.65;70.38;101768.97;5220748;28;20283;-80
2021/03/29 07:47:52;;;;;;;11.32;2.95;;;;;;;12.65;69.67;101771.59;5222662;28;20044;-80
2021/03/29 07:50:26;;;;;;;16.05;3.88;;;;;;;12.65;70.42;101776.00;5225045;28;20652;-80
2021/03/29 07:53:00;;;;;;;12.57;3.13;;;;;;;12.93;70.88;101766.53;5212544;28;20044;-80
2021/03/29 07:55:36;;;;;;;11.48;3.08;;;;;;;12.87;69.86;101778.03;5217174;28;20024;-81
2021/03/29 07:58:09;;;;;;;14.05;3.20;;;;;;;13.06;69.66;101769.66;5227015;28;20029;-82
2021/03/29 08:00:41;;;;;;;12.35;3.53;;;;;;;13.19;69.50;101765.81;5210555;28;20633;-81
2021/03/29 08:03:12;;;;;;;17.30;3.05;;;;;;;13.26;71.26;101763.88;5228615;28;20029;-78
2021/03/29 08:05:47;;;;;;;14.83;3.53;;;;;;;13.40;70.40;101762.56;5226672;28;20032;-82
2021/03/29 08:08:23;;;;;;;11.65;3.05;;;;;;;13.32;68.62;101771.56;5209700;28;20282;-81
2021/03/29 08:10:55;;;;;;;12.80;2.97;;;;;;;13.23;68.79;101761.34;5225991;28;20024;-80
2021/03/29 08:13:37;;;;;;;13.77;3.40;;;;;;;13.09;68.74;101763.47;5228283;28;20025;-79
2021/03/29 08:16:10;;;;;;;14.45;3.25;;;;;;;13.25;69.60;101767.41;5223776;28;20119;-81
2021/03/29 08:19:06;;;;;;;12.63;2.78;;;;;;;13.32;70.02;101768.94;5225712;28;20031;-81
2021/03/29 08:21:52;;;;;;;12.45;3.15;;;;;;;13.21;69.49;101769.25;5223282;28;20017;-80
2021/03/29 08:24:26;;;;;;;18.00;3.47;;;;;;;13.61;67.57;101763.75;5225952;28;20140;-80
2021/03/29 08:26:57;;;;;;;16.40;3.30;;;;;;;14.08;66.82;101758.78;5221653;28;20034;-82
2021/03/29 08:29:34;;;;;;;13.85;3.47;;;;;;;14.99;64.25;101761.00;5207732;28;20055;-79
2021/03/29 08:32:08;;;;;;;15.27;3.55;;;;;;;15.95;62.15;101767.13;5225368;28;20025;-80
2021/03/29 08:34:42;;;;;;;10.63;3.00;;;;;;;16.41;60.71;101767.09;5224056;28;20025;-80
2021/03/29 08:37:15;;;;;;;13.63;3.38;;;;;;;17.76;57.81;101754.94;5225975;28;20082;-79
2021/03/29 08:39:47;;;;;;;9.13;3.08;;;;;;;18.53;55.97;101753.88;5226231;28;20024;-80
2021/03/29 08:42:21;;;;;;;12.55;2.97;;;;;;;17.88;57.12;101750.84;5225444;28;20033;-81
2021/03/29 08:44:52;;;;;;;12.93;3.50;;;;;;;17.56;57.51;101757.63;5226924;28;20062;-81
2021/03/29 08:47:24;;;;;;;11.02;3.05;;;;;;;17.73;57.08;101756.84;5207073;28;20032;-79
2021/03/29 08:50:00;;;;;;;17.20;3.25;;;;;;;17.18;58.16;101757.59;5225375;28;20494;-81
2021/03/29 08:52:47;;;;;;;9.00;3.00;;;;;;;17.61;56.92;101753.00;5204135;28;20032;-81
2021/03/29 08:55:28;;;;;;;12.30;3.17;;;;;;;17.25;58.86;101757.25;5213807;28;20432;-81
2021/03/29 08:57:59;;;;;;;11.73;3.13;;;;;;;18.13;56.43;101748.75;5202174;28;20013;-80
2021/03/29 09:00:33;;;;;;;13.57;2.88;;;;;;;18.44;55.91;101757.84;5223718;28;20017;-81
2021/03/29 09:03:05;;;;;;;8.27;2.50;;;;;;;19.00;55.64;101759.38;5202920;28;20025;-81
2021/03/29 09:05:35;;;;;;;13.15;3.08;;;;;;;19.53;55.27;101760.09;5219102;28;20035;-81
2021/03/29 09:08:10;;;;;;;11.33;2.67;;;;;;;19.72;52.96;101758.16;5206820;28;20029;-81
2021/03/29 09:10:44;;;;;;;10.95;2.88;;;;;;;20.85;51.32;101761.41;5203073;28;20808;-81
2021/03/29 09:13:15;;;;;;;12.00;3.03;;;;;;;20.56;52.08;101753.38;5202792;28;20570;-82
2021/03/29 09:15:49;;;;;;;9.68;2.92;;;;;;;20.57;51.42;101760.41;5222028;28;20498;-81
2021/03/29 09:18:24;;;;;;;13.05;2.85;;;;;;;21.52;50.52;101758.16;5221792;28;20028;-82
2021/03/29 09:20:55;;;;;;;10.45;2.95;;;;;;;21.31;51.95;101754.16;5213469;28;20029;-82
2021/03/29 09:23:36;;;;;;;9.93;3.17;;;;;;;21.76;49.93;101767.34;5219950;28;20046;-80
2021/03/29 09:26:06;;;;;;;10.05;3.00;;;;;;;19.87;52.01;101775.03;5202751;28;20039;-79
2021/03/29 09:28:40;;;;;;;11.73;3.50;;;;;;;18.66;53.58;101774.38;5219579;28;20024;-79
2021/03/29 09:31:15;;;;;;;11.45;3.22;;;;;;;18.53;56.03;101778.56;5219753;28;20036;-79
2021/03/29 09:33:46;;;;;;;9.20;3.13;;;;;;;18.20;57.26;101779.31;5201101;28;20036;-78
2021/03/29 09:36:19;;;;;;;14.20;2.97;;;;;;;17.93;57.50;101775.31;5200673;28;20086;-78
2021/03/29 09:38:59;;;;;;;13.77;3.53;;;;;;;17.78;58.35;101778.66;5215490;28;20112;-78
2021/03/29 09:41:32;;;;;;;10.82;3.38;;;;;;;17.77;59.07;101782.22;5216813;28;20033;-81
2021/03/29 09:44:08;;;;;;;15.38;3.30;;;;;;;17.67;58.18;101776.50;5216626;28;20036;-81
2021/03/29 09:46:38;;;;;;;12.57;3.40;;;;;;;17.79;58.79;101777.75;5221428;28;20044;-81
2021/03/29 09:49:16;;;;;;;9.50;3.10;;;;;;;17.64;58.52;101773.16;5219519;28;20037;-81
2021/03/29 09:51:50;;;;;;;15.48;3.20;;;;;;;17.87;58.56;101786.19;5220088;28;20049;-81
2021/03/29 09:54:26;;;;;;;8.82;2.70;;;;;;;17.87;59.73;101779.13;5202469;28;20045;-81
2021/03/29 09:57:10;;;;;;;11.55;2.90;;;;;;;18.08;58.14;101783.41;5219461;28;20032;-80
2021/03/29 09:59:42;;;;;;;14.00;3.10;;;;;;;17.84;58.28;101775.75;5220860;28;20075;-80
2021/03/29 10:02:18;;;;;;;12.60;3.30;;;;;;;17.81;59.65;101774.09;5203736;28;20065;-80
2021/03/29 10:04:59;;;;;;;8.73;2.72;;;;;;;17.80;60.25;101775.03;5218345;28;20240;-80
2021/03/29 10:07:30;;;;;;;12.68;3.03;;;;;;;17.82;59.63;101774.97;5199822;28;20513;-80
2021/03/29 10:10:05;;;;;;;11.38;2.80;;;;;;;18.03;58.86;101780.09;5204661;28;20218;-81
2021/03/29 10:12:36;;;;;;;10.85;2.90;;;;;;;17.85;59.62;101766.88;5222542;28;20048;-80
2021/03/29 10:15:12;;;;;;;10.23;2.83;;;;;;;18.09;59.80;101771.88;5200133;28;20032;-80
2021/03/29 10:17:43;;;;;;;9.93;2.78;;;;;;;17.99;58.49;101777.69;5222001;28;20068;-80
2021/03/29 10:20:17;;;;;;;11.10;2.35;;;;;;;17.91;57.37;101778.03;5222061;28;20079;-81
2021/03/29 10:22:47;;;;;;;6.40;2.30;;;;;;;18.00;57.82;101777.59;5222365;28;20044;-80
2021/03/29 10:25:22;;;;;;;10.60;2.22;;;;;;;18.25;58.46;101772.00;5205387;28;20449;-80
2021/03/29 10:27:55;;;;;;;11.77;2.23;;;;;;;18.23;56.16;101772.09;5221269;28;20036;-81
2021/03/29 10:30:27;;;;;;;11.10;2.20;;;;;;;18.23;55.65;101769.44;5202715;28;20272;-81
2021/03/29 10:33:01;;;;;;;8.70;2.30;;;;;;;18.26;55.74;101773.72;5216623;28;20077;-81
2021/03/29 10:35:32;;;;;;;9.63;2.03;;;;;;;18.44;55.78;101767.56;5222347;28;20055;-80
2021/03/29 10:38:03;;;;;;;9.55;2.03;;;;;;;18.31;54.89;101769.09;5204147;28;20578;-80
2021/03/29 10:40:33;;;;;;;6.07;1.88;;;;;;;18.41;55.61;101768.59;5203977;28;20080;-80
2021/03/29 10:43:04;;;;;;;9.45;2.22;;;;;;;18.25;55.37;101762.28;5221661;28;20044;-81
2021/03/29 10:45:34;;;;;;;9.65;2.70;;;;;;;18.32;54.66;101760.25;5219725;28;20021;-81
2021/03/29 10:48:05;;;;;;;8.75;2.05;;;;;;;18.27;54.77;101770.13;5221429;28;20349;-80
2021/03/29 10:50:35;;;;;;;11.25;2.13;;;;;;;18.39;53.82;101762.50;5222546;28;20021;-81
2021/03/29 10:53:05;;;;;;;10.90;2.40;;;;;;;18.38;54.38;101763.41;5221385;28;20041;-80
2021/03/29 10:55:35;;;;;;;7.13;2.00;;;;;;;18.36;52.93;101761.78;5222244;28;20414;-80
2021/03/29 10:58:06;;;;;;;6.47;1.80;;;;;;;18.35;53.60;101768.03;5220448;28;20046;-80
2021/03/29 11:00:36;;;;;;;11.30;2.35;;;;;;;18.46;53.56;101765.69;5215651;28;20025;-80
2021/03/29 11:03:06;;;;;;;10.00;2.00;;;;;;;18.53;53.40;101764.47;5203819;28;20041;-80
2021/03/29 11:05:37;;;;;;;8.73;2.30;;;;;;;18.59;54.92;101753.56;5203814;28;20029;-80
2021/03/29 11:08:07;;;;;;;10.10;1.95;;;;;;;18.35;52.62;101757.44;5218105;28;20438;-80
2021/03/29 11:10:38;;;;;;;10.85;2.08;;;;;;;18.56;53.37;101754.59;5201207;28;20048;-80
2021/03/29 11:13:08;;;;;;;10.13;2.67;;;;;;;18.45;52.39;101756.03;5203653;28;20474;-79
2021/03/29 11:15:39;;;;;;;7.93;1.85;;;;;;;18.62;53.10;101751.63;5204676;28;20104;-80
2021/03/29 11:18:12;;;;;;;10.10;2.30;;;;;;;18.74;53.07;101762.47;5222552;28;20070;-79
2021/03/29 11:20:42;;;;;;;5.25;2.00;;;;;;;18.70;53.85;101753.91;5220591;28;20044;-80
2021/03/29 11:23:16;;;;;;;8.70;2.35;;;;;;;18.79;54.05;101755.13;5196225;28;20029;-80
2021/03/29 11:25:46;;;;;;;9.30;1.77;;;;;;;18.87;51.82;101755.63;5213918;28;20148;-80
2021/03/29 11:28:16;;;;;;;9.82;2.13;;;;;;;18.95;52.23;101755.22;5191729;28;20451;-80
2021/03/29 11:30:47;;;;;;;8.70;1.70;;;;;;;18.94;50.19;101762.31;5203535;28;20071;-80
2021/03/29 11:33:17;;;;;;;8.77;1.83;;;;;;;18.96;50.46;101765.72;5236662;28;20309;-80
2021/03/29 11:35:48;;;;;;;6.28;1.73;;;;;;;19.00;51.51;101758.50;5216680;28;20055;-80
2021/03/29 11:38:19;;;;;;;9.88;1.85;;;;;;;19.12;50.39;101761.38;5205917;28;20124;-80
2021/03/29 11:40:49;;;;;;;9.30;2.03;;;;;;;19.29;50.50;101757.88;5203200;28;20102;-81
2021/03/29 11:43:19;;;;;;;8.85;1.80;;;;;;;19.19;50.93;101760.16;5216934;28;20040;-81
2021/03/29 11:45:50;;;;;;;6.57;1.50;;;;;;;19.19;50.59;101760.16;5219762;28;20301;-81
2021/03/29 11:48:21;;;;;;;9.40;2.72;;;;;;;19.24;50.66;101766.06;5218919;28;20506;-78
2021/03/29 11:50:51;;;;;;;7.20;1.80;;;;;;;19.16;50.34;101757.69;5221089;28;20029;-80